sensor_id;sensor_type;location;lat;lon;timestamp;pressure;altitude;pressure_sealevel;temperature;humidity
64076;BME280;50327;51.328;12.324;2023-02-28T00:00:18;53102.38;;;-144.47;67.12
64076;BME280;50327;51.328;12.324;2023-02-28T00:02:45;53078.53;;;-144.47;66.80
64076;BME280;50327;51.328;12.324;2023-02-28T00:05:12;53098.41;;;-144.47;66.89
64076;BME280;50327;51.328;12.324;2023-02-28T00:07:41;53098.41;;;-144.47;67.19
64076;BME280;50327;51.328;12.324;2023-02-28T00:10:12;53106.34;;;-144.47;67.12
64076;BME280;50327;51.328;12.324;2023-02-28T00:12:38;53058.69;;;-144.47;67.25
64076;BME280;50327;51.328;12.324;2023-02-28T00:15:09;53104.38;;;-144.47;67.42
64076;BME280;50327;51.328;12.324;2023-02-28T00:17:34;53078.53;;;-144.47;67.29
64076;BME280;50327;51.328;12.324;2023-02-28T00:20:00;53104.38;;;-144.47;67.84
64076;BME280;50327;51.328;12.324;2023-02-28T00:22:38;53086.50;;;-144.47;68.35
64076;BME280;50327;51.328;12.324;2023-02-28T00:25:04;53078.53;;;-144.47;67.69
64076;BME280;50327;51.328;12.324;2023-02-28T00:27:30;53082.53;;;-144.47;68.05
64076;BME280;50327;51.328;12.324;2023-02-28T00:29:55;53114.31;;;-144.47;67.80
64076;BME280;50327;51.328;12.324;2023-02-28T00:32:21;53050.75;;;-144.47;67.06
64076;BME280;50327;51.328;12.324;2023-02-28T00:34:46;53084.50;;;-144.47;67.49
64076;BME280;50327;51.328;12.324;2023-02-28T00:37:15;53082.53;;;-144.47;67.05
64076;BME280;50327;51.328;12.324;2023-02-28T00:39:40;53096.41;;;-144.47;67.20
64076;BME280;50327;51.328;12.324;2023-02-28T00:42:06;53068.63;;;-144.47;67.18
64076;BME280;50327;51.328;12.324;2023-02-28T00:44:32;53118.28;;;-144.47;67.28
64076;BME280;50327;51.328;12.324;2023-02-28T00:46:58;53092.44;;;-144.47;67.52
64076;BME280;50327;51.328;12.324;2023-02-28T00:49:24;53100.41;;;-144.47;67.29
64076;BME280;50327;51.328;12.324;2023-02-28T00:51:50;53076.56;;;-144.47;68.00
64076;BME280;50327;51.328;12.324;2023-02-28T00:54:16;53094.44;;;-144.47;67.78
64076;BME280;50327;51.328;12.324;2023-02-28T00:56:42;53054.72;;;-144.47;68.05
64076;BME280;50327;51.328;12.324;2023-02-28T00:59:07;53078.53;;;-144.47;68.36
64076;BME280;50327;51.328;12.324;2023-02-28T01:01:33;53072.59;;;-144.47;68.48
64076;BME280;50327;51.328;12.324;2023-02-28T01:03:58;53068.63;;;-144.47;68.18
64076;BME280;50327;51.328;12.324;2023-02-28T01:06:24;53104.38;;;-144.47;68.27
64076;BME280;50327;51.328;12.324;2023-02-28T01:08:49;53070.59;;;-144.47;68.63
64076;BME280;50327;51.328;12.324;2023-02-28T01:11:16;53072.59;;;-144.47;68.77
64076;BME280;50327;51.328;12.324;2023-02-28T01:13:42;53102.38;;;-144.47;69.11
64076;BME280;50327;51.328;12.324;2023-02-28T01:16:08;53100.41;;;-144.47;68.92
64076;BME280;50327;51.328;12.324;2023-02-28T01:18:33;53080.53;;;-144.47;68.85
64076;BME280;50327;51.328;12.324;2023-02-28T01:21:06;53098.41;;;-144.47;69.05
64076;BME280;50327;51.328;12.324;2023-02-28T01:23:31;53084.50;;;-144.47;68.91
64076;BME280;50327;51.328;12.324;2023-02-28T01:26:04;53090.47;;;-144.47;68.62
64076;BME280;50327;51.328;12.324;2023-02-28T01:28:29;53074.56;;;-144.47;68.50
64076;BME280;50327;51.328;12.324;2023-02-28T01:30:55;53124.22;;;-144.47;68.84
64076;BME280;50327;51.328;12.324;2023-02-28T01:33:20;53096.41;;;-144.47;69.24
64076;BME280;50327;51.328;12.324;2023-02-28T01:35:45;53094.44;;;-144.47;69.37
64076;BME280;50327;51.328;12.324;2023-02-28T01:38:11;53076.56;;;-144.47;69.27
64076;BME280;50327;51.328;12.324;2023-02-28T01:40:36;53110.31;;;-144.47;69.75
64076;BME280;50327;51.328;12.324;2023-02-28T01:43:01;53098.41;;;-144.47;69.67
64076;BME280;50327;51.328;12.324;2023-02-28T01:45:30;53076.56;;;-144.47;69.56
64076;BME280;50327;51.328;12.324;2023-02-28T01:48:00;53096.41;;;-144.47;69.87
64076;BME280;50327;51.328;12.324;2023-02-28T01:50:29;53104.38;;;-144.47;70.44
64076;BME280;50327;51.328;12.324;2023-02-28T01:53:00;53086.50;;;-144.47;70.17
64076;BME280;50327;51.328;12.324;2023-02-28T01:55:27;53084.50;;;-144.47;70.21
64076;BME280;50327;51.328;12.324;2023-02-28T01:57:57;53098.41;;;-144.47;71.10
64076;BME280;50327;51.328;12.324;2023-02-28T02:00:26;53104.38;;;-144.47;70.90
64076;BME280;50327;51.328;12.324;2023-02-28T02:03:13;53074.56;;;-144.47;71.11
64076;BME280;50327;51.328;12.324;2023-02-28T02:05:40;53086.50;;;-144.47;71.45
64076;BME280;50327;51.328;12.324;2023-02-28T02:08:12;53094.44;;;-144.47;70.91
64076;BME280;50327;51.328;12.324;2023-02-28T02:10:41;53096.41;;;-144.47;70.79
64076;BME280;50327;51.328;12.324;2023-02-28T02:18:54;53092.44;;;-144.47;70.58
64076;BME280;50327;51.328;12.324;2023-02-28T02:27:11;53092.44;;;-144.47;71.73
64076;BME280;50327;51.328;12.324;2023-02-28T02:38:42;53116.28;;;-144.47;72.18
64076;BME280;50327;51.328;12.324;2023-02-28T02:41:24;53110.31;;;-144.47;72.41
64076;BME280;50327;51.328;12.324;2023-02-28T02:46:34;53106.34;;;-144.47;72.33
64076;BME280;50327;51.328;12.324;2023-02-28T02:49:04;53092.44;;;-144.47;72.40
64076;BME280;50327;51.328;12.324;2023-02-28T02:51:32;53088.47;;;-144.47;72.35
64076;BME280;50327;51.328;12.324;2023-02-28T02:54:21;53094.44;;;-144.47;72.86
64076;BME280;50327;51.328;12.324;2023-02-28T02:56:48;53116.28;;;-144.47;72.81
64076;BME280;50327;51.328;12.324;2023-02-28T02:59:18;53114.31;;;-144.47;72.86
64076;BME280;50327;51.328;12.324;2023-02-28T03:01:53;53098.41;;;-144.47;73.09
64076;BME280;50327;51.328;12.324;2023-02-28T03:04:22;53112.31;;;-144.47;72.93
64076;BME280;50327;51.328;12.324;2023-02-28T03:06:50;53106.34;;;-144.47;73.34
64076;BME280;50327;51.328;12.324;2023-02-28T03:09:23;53090.47;;;-144.47;73.57
64076;BME280;50327;51.328;12.324;2023-02-28T03:11:49;53104.38;;;-144.47;74.33
64076;BME280;50327;51.328;12.324;2023-02-28T03:16:57;53102.38;;;-144.47;74.64
64076;BME280;50327;51.328;12.324;2023-02-28T03:27:26;53106.34;;;-144.47;74.98
64076;BME280;50327;51.328;12.324;2023-02-28T03:30:19;53114.31;;;-144.47;74.86
64076;BME280;50327;51.328;12.324;2023-02-28T03:32:55;53140.13;;;-144.47;74.80
64076;BME280;50327;51.328;12.324;2023-02-28T03:35:30;53108.34;;;-144.47;75.06
64076;BME280;50327;51.328;12.324;2023-02-28T03:38:07;53124.22;;;-144.47;75.04
64076;BME280;50327;51.328;12.324;2023-02-28T03:40:35;53134.16;;;-144.47;74.98
64076;BME280;50327;51.328;12.324;2023-02-28T03:43:09;53122.25;;;-144.47;75.19
64076;BME280;50327;51.328;12.324;2023-02-28T03:45:37;53080.53;;;-144.47;75.29
64076;BME280;50327;51.328;12.324;2023-02-28T03:50:45;53126.22;;;-144.47;75.79
64076;BME280;50327;51.328;12.324;2023-02-28T03:53:15;53114.31;;;-144.47;76.13
64076;BME280;50327;51.328;12.324;2023-02-28T03:55:45;53122.25;;;-144.47;75.89
64076;BME280;50327;51.328;12.324;2023-02-28T03:58:30;53102.38;;;-144.47;76.16
64076;BME280;50327;51.328;12.324;2023-02-28T04:01:07;53128.22;;;-144.47;76.56
64076;BME280;50327;51.328;12.324;2023-02-28T04:03:38;53102.38;;;-144.47;76.49
64076;BME280;50327;51.328;12.324;2023-02-28T04:06:05;53104.38;;;-144.47;76.55
64076;BME280;50327;51.328;12.324;2023-02-28T04:08:32;53110.31;;;-144.47;76.63
64076;BME280;50327;51.328;12.324;2023-02-28T04:11:20;53106.34;;;-144.47;76.92
64076;BME280;50327;51.328;12.324;2023-02-28T04:13:46;53146.09;;;-144.47;76.83
64076;BME280;50327;51.328;12.324;2023-02-28T04:16:11;53094.44;;;-144.47;76.86
64076;BME280;50327;51.328;12.324;2023-02-28T04:18:40;53126.22;;;-144.47;76.88
64076;BME280;50327;51.328;12.324;2023-02-28T04:21:08;53126.22;;;-144.47;76.68
64076;BME280;50327;51.328;12.324;2023-02-28T04:23:34;53110.31;;;-144.47;76.54
64076;BME280;50327;51.328;12.324;2023-02-28T04:25:59;53126.22;;;-144.47;76.11
64076;BME280;50327;51.328;12.324;2023-02-28T04:28:25;53134.16;;;-144.47;76.17
64076;BME280;50327;51.328;12.324;2023-02-28T04:31:03;53110.31;;;-144.47;76.15
64076;BME280;50327;51.328;12.324;2023-02-28T04:33:30;53096.41;;;-144.47;75.81
64076;BME280;50327;51.328;12.324;2023-02-28T04:36:04;53146.09;;;-144.47;75.38
64076;BME280;50327;51.328;12.324;2023-02-28T04:38:36;53094.44;;;-144.47;75.13
64076;BME280;50327;51.328;12.324;2023-02-28T04:41:02;53098.41;;;-144.47;74.79
64076;BME280;50327;51.328;12.324;2023-02-28T04:43:28;53102.38;;;-144.47;74.38
64076;BME280;50327;51.328;12.324;2023-02-28T04:45:55;53104.38;;;-144.47;74.01
64076;BME280;50327;51.328;12.324;2023-02-28T04:48:27;53126.22;;;-144.47;73.82
64076;BME280;50327;51.328;12.324;2023-02-28T04:50:53;53114.31;;;-144.47;73.84
64076;BME280;50327;51.328;12.324;2023-02-28T04:53:19;53128.22;;;-144.47;72.85
64076;BME280;50327;51.328;12.324;2023-02-28T04:55:45;53114.31;;;-144.47;73.12
64076;BME280;50327;51.328;12.324;2023-02-28T04:58:11;53074.56;;;-144.47;73.14
64076;BME280;50327;51.328;12.324;2023-02-28T05:00:36;53142.09;;;-144.47;73.15
64076;BME280;50327;51.328;12.324;2023-02-28T05:03:02;53106.34;;;-144.47;73.06
64076;BME280;50327;51.328;12.324;2023-02-28T05:05:27;53096.41;;;-144.47;73.28
64076;BME280;50327;51.328;12.324;2023-02-28T05:07:53;53130.19;;;-144.47;72.93
64076;BME280;50327;51.328;12.324;2023-02-28T05:10:21;53126.22;;;-144.47;72.51
64076;BME280;50327;51.328;12.324;2023-02-28T05:12:46;53098.41;;;-144.47;72.73
64076;BME280;50327;51.328;12.324;2023-02-28T05:15:14;53146.09;;;-144.47;72.67
64076;BME280;50327;51.328;12.324;2023-02-28T05:17:40;53114.31;;;-144.47;72.04
64076;BME280;50327;51.328;12.324;2023-02-28T05:20:07;53104.38;;;-144.47;71.22
64076;BME280;50327;51.328;12.324;2023-02-28T05:22:34;53136.16;;;-144.47;70.87
64076;BME280;50327;51.328;12.324;2023-02-28T05:24:59;53120.25;;;-144.47;71.26
64076;BME280;50327;51.328;12.324;2023-02-28T05:27:24;53144.09;;;-144.47;70.49
64076;BME280;50327;51.328;12.324;2023-02-28T05:29:50;53122.25;;;-144.47;70.51
64076;BME280;50327;51.328;12.324;2023-02-28T05:32:15;53104.38;;;-144.47;70.34
64076;BME280;50327;51.328;12.324;2023-02-28T05:34:41;53108.34;;;-144.47;70.15
64076;BME280;50327;51.328;12.324;2023-02-28T05:37:12;53116.28;;;-144.47;70.29
64076;BME280;50327;51.328;12.324;2023-02-28T05:39:38;53108.34;;;-144.47;70.23
64076;BME280;50327;51.328;12.324;2023-02-28T05:42:04;53148.06;;;-144.47;70.46
64076;BME280;50327;51.328;12.324;2023-02-28T05:44:29;53124.22;;;-144.47;70.18
64076;BME280;50327;51.328;12.324;2023-02-28T05:46:55;53154.03;;;-144.47;69.83
64076;BME280;50327;51.328;12.324;2023-02-28T05:49:20;53118.28;;;-144.47;70.36
64076;BME280;50327;51.328;12.324;2023-02-28T05:51:46;53126.22;;;-144.47;70.60
64076;BME280;50327;51.328;12.324;2023-02-28T05:54:11;53138.13;;;-144.47;70.55
64076;BME280;50327;51.328;12.324;2023-02-28T05:56:36;53078.53;;;-144.47;69.46
64076;BME280;50327;51.328;12.324;2023-02-28T05:59:06;53074.56;;;-144.47;70.10
64076;BME280;50327;51.328;12.324;2023-02-28T06:01:37;53130.19;;;-144.47;70.66
64076;BME280;50327;51.328;12.324;2023-02-28T06:04:05;53142.09;;;-144.47;70.64
64076;BME280;50327;51.328;12.324;2023-02-28T06:06:31;53124.22;;;-144.47;70.36
64076;BME280;50327;51.328;12.324;2023-02-28T06:08:56;53108.34;;;-144.47;71.10
64076;BME280;50327;51.328;12.324;2023-02-28T06:11:22;53092.44;;;-144.47;71.00
64076;BME280;50327;51.328;12.324;2023-02-28T06:13:53;53088.47;;;-144.47;70.09
64076;BME280;50327;51.328;12.324;2023-02-28T06:16:19;53118.28;;;-144.47;70.29
64076;BME280;50327;51.328;12.324;2023-02-28T06:18:44;53128.22;;;-144.47;70.81
64076;BME280;50327;51.328;12.324;2023-02-28T06:21:12;53112.31;;;-144.47;70.20
64076;BME280;50327;51.328;12.324;2023-02-28T06:23:37;53104.38;;;-144.47;73.20
64076;BME280;50327;51.328;12.324;2023-02-28T06:26:03;53114.31;;;-144.47;71.33
64076;BME280;50327;51.328;12.324;2023-02-28T06:28:28;53106.34;;;-144.47;69.49
64076;BME280;50327;51.328;12.324;2023-02-28T06:30:54;53114.31;;;-144.47;69.30
64076;BME280;50327;51.328;12.324;2023-02-28T06:33:19;53112.31;;;-144.47;68.34
64076;BME280;50327;51.328;12.324;2023-02-28T06:35:47;53106.34;;;-144.47;69.07
64076;BME280;50327;51.328;12.324;2023-02-28T06:38:12;53118.28;;;-144.47;68.60
64076;BME280;50327;51.328;12.324;2023-02-28T06:40:38;53112.31;;;-144.47;68.57
64076;BME280;50327;51.328;12.324;2023-02-28T06:43:03;53094.44;;;-144.47;68.74
64076;BME280;50327;51.328;12.324;2023-02-28T06:45:29;53074.56;;;-144.47;68.45
64076;BME280;50327;51.328;12.324;2023-02-28T06:47:54;53096.41;;;-144.47;68.51
64076;BME280;50327;51.328;12.324;2023-02-28T06:50:20;53098.41;;;-144.47;67.96
64076;BME280;50327;51.328;12.324;2023-02-28T06:52:46;53126.22;;;-144.47;68.15
64076;BME280;50327;51.328;12.324;2023-02-28T06:55:12;53132.19;;;-144.47;68.25
64076;BME280;50327;51.328;12.324;2023-02-28T06:57:38;53100.41;;;-144.47;67.78
64076;BME280;50327;51.328;12.324;2023-02-28T07:00:07;53110.31;;;-144.47;68.10
64076;BME280;50327;51.328;12.324;2023-02-28T07:02:34;53124.22;;;-144.47;68.65
64076;BME280;50327;51.328;12.324;2023-02-28T07:04:59;53110.31;;;-144.47;68.61
64076;BME280;50327;51.328;12.324;2023-02-28T07:07:25;53114.31;;;-144.47;68.05
64076;BME280;50327;51.328;12.324;2023-02-28T07:09:50;53106.34;;;-144.47;67.93
64076;BME280;50327;51.328;12.324;2023-02-28T07:12:15;53122.25;;;-144.47;68.36
64076;BME280;50327;51.328;12.324;2023-02-28T07:14:41;53094.44;;;-144.47;68.01
64076;BME280;50327;51.328;12.324;2023-02-28T07:17:10;53128.22;;;-144.47;67.32
64076;BME280;50327;51.328;12.324;2023-02-28T07:19:37;53102.38;;;-144.47;67.35
64076;BME280;50327;51.328;12.324;2023-02-28T07:22:03;53098.41;;;-144.47;66.89
64076;BME280;50327;51.328;12.324;2023-02-28T07:24:29;53084.50;;;-144.47;67.08
64076;BME280;50327;51.328;12.324;2023-02-28T07:26:55;53108.34;;;-144.47;65.75
64076;BME280;50327;51.328;12.324;2023-02-28T07:29:20;53104.38;;;-144.47;65.76
64076;BME280;50327;51.328;12.324;2023-02-28T07:31:46;53098.41;;;-144.47;64.97
64076;BME280;50327;51.328;12.324;2023-02-28T07:34:12;53080.53;;;-144.47;64.93
64076;BME280;50327;51.328;12.324;2023-02-28T07:36:37;53092.44;;;-144.47;64.65
64076;BME280;50327;51.328;12.324;2023-02-28T07:39:03;53122.25;;;-144.47;64.20
64076;BME280;50327;51.328;12.324;2023-02-28T07:41:29;53072.59;;;-144.47;63.15
64076;BME280;50327;51.328;12.324;2023-02-28T07:43:55;53100.41;;;-144.47;63.10
64076;BME280;50327;51.328;12.324;2023-02-28T07:46:22;53110.31;;;-144.47;63.15
64076;BME280;50327;51.328;12.324;2023-02-28T07:48:47;53098.41;;;-144.47;63.00
64076;BME280;50327;51.328;12.324;2023-02-28T07:51:13;53092.44;;;-144.47;62.34
64076;BME280;50327;51.328;12.324;2023-02-28T07:53:38;53082.53;;;-144.47;62.99
64076;BME280;50327;51.328;12.324;2023-02-28T07:56:04;53078.53;;;-144.47;63.01
64076;BME280;50327;51.328;12.324;2023-02-28T07:58:30;53090.47;;;-144.47;62.73
64076;BME280;50327;51.328;12.324;2023-02-28T08:00:56;53058.69;;;-144.47;62.72
64076;BME280;50327;51.328;12.324;2023-02-28T08:03:23;53088.47;;;-144.47;61.58
64076;BME280;50327;51.328;12.324;2023-02-28T08:05:49;53076.56;;;-144.47;61.12
64076;BME280;50327;51.328;12.324;2023-02-28T08:08:15;53072.59;;;-144.47;61.08
64076;BME280;50327;51.328;12.324;2023-02-28T08:10:41;53114.31;;;-144.47;60.87
64076;BME280;50327;51.328;12.324;2023-02-28T08:13:07;53046.75;;;-144.47;60.13
64076;BME280;50327;51.328;12.324;2023-02-28T08:15:35;53082.53;;;-144.47;59.28
64076;BME280;50327;51.328;12.324;2023-02-28T08:18:01;53070.59;;;-144.47;58.64
64076;BME280;50327;51.328;12.324;2023-02-28T08:20:27;53072.59;;;-144.47;57.66
64076;BME280;50327;51.328;12.324;2023-02-28T08:22:52;53102.38;;;-144.47;56.71
64076;BME280;50327;51.328;12.324;2023-02-28T08:25:18;53088.47;;;-144.47;57.34
64076;BME280;50327;51.328;12.324;2023-02-28T08:27:43;53078.53;;;-144.47;56.68
64076;BME280;50327;51.328;12.324;2023-02-28T08:30:13;53046.75;;;-144.47;56.48
64076;BME280;50327;51.328;12.324;2023-02-28T08:32:39;53056.69;;;-144.47;55.16
64076;BME280;50327;51.328;12.324;2023-02-28T08:35:05;53082.53;;;-144.47;54.13
64076;BME280;50327;51.328;12.324;2023-02-28T08:37:31;53094.44;;;-144.47;54.65
64076;BME280;50327;51.328;12.324;2023-02-28T08:39:56;53036.84;;;-144.47;54.42
64076;BME280;50327;51.328;12.324;2023-02-28T08:42:22;53074.56;;;-144.47;53.79
64076;BME280;50327;51.328;12.324;2023-02-28T08:44:47;53052.72;;;-144.47;53.43
64076;BME280;50327;51.328;12.324;2023-02-28T08:47:12;53062.66;;;-144.47;53.98
64076;BME280;50327;51.328;12.324;2023-02-28T08:49:38;53046.75;;;-144.47;53.33
64076;BME280;50327;51.328;12.324;2023-02-28T08:52:03;53056.69;;;-144.47;52.69
64076;BME280;50327;51.328;12.324;2023-02-28T08:54:29;53026.91;;;-144.47;51.26
64076;BME280;50327;51.328;12.324;2023-02-28T08:56:56;53040.81;;;-144.47;51.91
64076;BME280;50327;51.328;12.324;2023-02-28T08:59:22;53030.88;;;-144.47;51.29
64076;BME280;50327;51.328;12.324;2023-02-28T09:01:47;53040.81;;;-144.47;49.66
64076;BME280;50327;51.328;12.324;2023-02-28T09:04:13;53054.72;;;-144.47;49.70
64076;BME280;50327;51.328;12.324;2023-02-28T09:06:38;53050.75;;;-144.47;50.21
64076;BME280;50327;51.328;12.324;2023-02-28T09:09:04;53048.75;;;-144.47;50.45
64076;BME280;50327;51.328;12.324;2023-02-28T09:11:31;53056.69;;;-144.47;50.96
64076;BME280;50327;51.328;12.324;2023-02-28T09:13:58;53038.81;;;-144.47;50.92
64076;BME280;50327;51.328;12.324;2023-02-28T09:16:25;52991.16;;;-144.47;51.03
64076;BME280;50327;51.328;12.324;2023-02-28T09:18:50;53034.84;;;-144.47;49.83
64076;BME280;50327;51.328;12.324;2023-02-28T09:21:17;53046.75;;;-144.47;50.72
64076;BME280;50327;51.328;12.324;2023-02-28T09:23:45;53044.78;;;-144.47;51.02
64076;BME280;50327;51.328;12.324;2023-02-28T09:26:24;53028.88;;;-144.47;50.60
64076;BME280;50327;51.328;12.324;2023-02-28T09:28:50;53050.75;;;-144.47;51.11
64076;BME280;50327;51.328;12.324;2023-02-28T09:31:24;53038.81;;;-144.47;51.16
64076;BME280;50327;51.328;12.324;2023-02-28T09:33:51;53024.91;;;-144.47;50.46
64076;BME280;50327;51.328;12.324;2023-02-28T09:36:18;53015.00;;;-144.47;50.48
64076;BME280;50327;51.328;12.324;2023-02-28T09:38:44;53024.91;;;-144.47;50.00
64076;BME280;50327;51.328;12.324;2023-02-28T09:41:16;53036.84;;;-144.47;50.34
64076;BME280;50327;51.328;12.324;2023-02-28T09:43:48;53011.00;;;-144.47;49.46
64076;BME280;50327;51.328;12.324;2023-02-28T09:46:31;53011.00;;;-144.47;49.11
64076;BME280;50327;51.328;12.324;2023-02-28T09:49:00;53018.97;;;-144.47;49.84
64076;BME280;50327;51.328;12.324;2023-02-28T09:53:59;53028.88;;;-144.47;48.93
64076;BME280;50327;51.328;12.324;2023-02-28T10:01:43;53007.03;;;-144.47;48.11
64076;BME280;50327;51.328;12.324;2023-02-28T10:06:52;53020.94;;;-144.47;48.49
64076;BME280;50327;51.328;12.324;2023-02-28T10:09:24;53013.00;;;-144.47;47.18
64076;BME280;50327;51.328;12.324;2023-02-28T10:11:53;53022.94;;;-144.47;47.27
64076;BME280;50327;51.328;12.324;2023-02-28T10:17:05;52991.16;;;-144.47;46.85
64076;BME280;50327;51.328;12.324;2023-02-28T10:22:15;52987.19;;;-144.47;47.02
64076;BME280;50327;51.328;12.324;2023-02-28T10:24:48;53028.88;;;-144.47;46.87
64076;BME280;50327;51.328;12.324;2023-02-28T10:27:18;53011.00;;;-144.47;46.92
64076;BME280;50327;51.328;12.324;2023-02-28T10:29:50;53011.00;;;-144.47;47.20
64076;BME280;50327;51.328;12.324;2023-02-28T10:32:27;53009.03;;;-144.47;47.02
64076;BME280;50327;51.328;12.324;2023-02-28T10:37:39;53005.06;;;-144.47;46.35
64076;BME280;50327;51.328;12.324;2023-02-28T10:40:06;52999.09;;;-144.47;47.11
64076;BME280;50327;51.328;12.324;2023-02-28T10:45:29;52985.19;;;-144.47;46.88
64076;BME280;50327;51.328;12.324;2023-02-28T10:48:06;52979.22;;;-144.47;46.26
64076;BME280;50327;51.328;12.324;2023-02-28T10:56:04;53015.00;;;-144.47;47.17
64076;BME280;50327;51.328;12.324;2023-02-28T11:01:45;53016.97;;;-144.47;48.05
64076;BME280;50327;51.328;12.324;2023-02-28T11:04:17;53003.06;;;-144.47;47.74
64076;BME280;50327;51.328;12.324;2023-02-28T11:06:44;53007.03;;;-144.47;49.16
64076;BME280;50327;51.328;12.324;2023-02-28T11:09:25;53018.97;;;-144.47;48.39
64076;BME280;50327;51.328;12.324;2023-02-28T11:11:54;52991.16;;;-144.47;48.53
64076;BME280;50327;51.328;12.324;2023-02-28T11:14:28;53007.03;;;-144.47;48.29
64076;BME280;50327;51.328;12.324;2023-02-28T11:16:59;52977.25;;;-144.47;47.25
64076;BME280;50327;51.328;12.324;2023-02-28T11:19:30;52995.13;;;-144.47;47.79
64076;BME280;50327;51.328;12.324;2023-02-28T11:22:04;52975.25;;;-144.47;47.54
64076;BME280;50327;51.328;12.324;2023-02-28T11:24:34;52999.09;;;-144.47;47.78
64076;BME280;50327;51.328;12.324;2023-02-28T11:27:01;53015.00;;;-144.47;47.42
64076;BME280;50327;51.328;12.324;2023-02-28T11:29:29;53011.00;;;-144.47;47.70
64076;BME280;50327;51.328;12.324;2023-02-28T11:32:16;52999.09;;;-144.47;47.66
64076;BME280;50327;51.328;12.324;2023-02-28T11:34:45;52955.41;;;-144.47;48.40
64076;BME280;50327;51.328;12.324;2023-02-28T11:37:17;52991.16;;;-144.47;47.44
64076;BME280;50327;51.328;12.324;2023-02-28T11:39:44;53005.06;;;-144.47;47.48
64076;BME280;50327;51.328;12.324;2023-02-28T11:44:57;53003.06;;;-144.47;47.37
64076;BME280;50327;51.328;12.324;2023-02-28T11:47:38;52995.13;;;-144.47;47.63
64076;BME280;50327;51.328;12.324;2023-02-28T11:55:59;52973.28;;;-144.47;48.19
64076;BME280;50327;51.328;12.324;2023-02-28T12:03:56;52975.25;;;-144.47;46.99
64076;BME280;50327;51.328;12.324;2023-02-28T12:06:36;53034.84;;;-144.47;48.13
64076;BME280;50327;51.328;12.324;2023-02-28T12:11:48;52985.19;;;-144.47;47.88
64076;BME280;50327;51.328;12.324;2023-02-28T12:17:31;52977.25;;;-144.47;48.03
64076;BME280;50327;51.328;12.324;2023-02-28T12:20:13;52983.22;;;-144.47;48.22
64076;BME280;50327;51.328;12.324;2023-02-28T12:25:41;52995.13;;;-144.47;48.23
64076;BME280;50327;51.328;12.324;2023-02-28T12:28:13;52963.34;;;-144.47;47.92
64076;BME280;50327;51.328;12.324;2023-02-28T12:31:08;52983.22;;;-144.47;47.32
64076;BME280;50327;51.328;12.324;2023-02-28T12:33:40;52965.34;;;-144.47;46.93
64076;BME280;50327;51.328;12.324;2023-02-28T12:36:11;52987.19;;;-144.47;46.78
64076;BME280;50327;51.328;12.324;2023-02-28T12:38:50;52977.25;;;-144.47;46.61
64076;BME280;50327;51.328;12.324;2023-02-28T12:41:26;52995.13;;;-144.47;46.79
64076;BME280;50327;51.328;12.324;2023-02-28T12:44:02;52965.34;;;-144.47;46.50
64076;BME280;50327;51.328;12.324;2023-02-28T12:46:42;52977.25;;;-144.47;46.74
64076;BME280;50327;51.328;12.324;2023-02-28T12:49:25;53018.97;;;-144.47;46.93
64076;BME280;50327;51.328;12.324;2023-02-28T12:51:53;52959.38;;;-144.47;46.49
64076;BME280;50327;51.328;12.324;2023-02-28T13:05:49;52963.34;;;-144.47;47.00
64076;BME280;50327;51.328;12.324;2023-02-28T13:08:41;52959.38;;;-144.47;47.40
64076;BME280;50327;51.328;12.324;2023-02-28T13:11:32;52957.38;;;-144.47;46.85
64076;BME280;50327;51.328;12.324;2023-02-28T13:14:03;52951.44;;;-144.47;46.86
64076;BME280;50327;51.328;12.324;2023-02-28T13:19:17;52963.34;;;-144.47;46.30
64076;BME280;50327;51.328;12.324;2023-02-28T13:21:44;52961.34;;;-144.47;46.09
64076;BME280;50327;51.328;12.324;2023-02-28T13:24:10;52947.47;;;-144.47;45.89
64076;BME280;50327;51.328;12.324;2023-02-28T13:34:32;52917.66;;;-144.47;44.57
64076;BME280;50327;51.328;12.324;2023-02-28T13:39:50;52961.34;;;-144.47;44.76
64076;BME280;50327;51.328;12.324;2023-02-28T13:47:34;52927.59;;;-144.47;43.30
64076;BME280;50327;51.328;12.324;2023-02-28T13:55:49;52943.47;;;-144.47;43.31
64076;BME280;50327;51.328;12.324;2023-02-28T14:01:21;52907.72;;;-144.47;42.47
64076;BME280;50327;51.328;12.324;2023-02-28T14:06:35;52907.72;;;-144.47;41.03
64076;BME280;50327;51.328;12.324;2023-02-28T14:11:39;52923.63;;;-144.47;41.77
64076;BME280;50327;51.328;12.324;2023-02-28T14:14:06;52897.81;;;-144.47;41.15
64076;BME280;50327;51.328;12.324;2023-02-28T14:16:44;52937.53;;;-144.47;40.71
64076;BME280;50327;51.328;12.324;2023-02-28T14:19:14;52899.78;;;-144.47;39.94
64076;BME280;50327;51.328;12.324;2023-02-28T14:37:50;52881.91;;;-144.47;40.07
64076;BME280;50327;51.328;12.324;2023-02-28T14:40:37;52893.81;;;-144.47;40.16
64076;BME280;50327;51.328;12.324;2023-02-28T14:43:05;52887.88;;;-144.47;39.96
64076;BME280;50327;51.328;12.324;2023-02-28T14:45:33;52885.88;;;-144.47;39.51
64076;BME280;50327;51.328;12.324;2023-02-28T14:48:01;52871.97;;;-144.47;39.39
64076;BME280;50327;51.328;12.324;2023-02-28T14:50:31;52887.88;;;-144.47;38.89
64076;BME280;50327;51.328;12.324;2023-02-28T14:52:57;52871.97;;;-144.47;37.80
64076;BME280;50327;51.328;12.324;2023-02-28T14:55:28;52854.09;;;-144.47;37.55
64076;BME280;50327;51.328;12.324;2023-02-28T14:58:06;52905.75;;;-144.47;37.79
64076;BME280;50327;51.328;12.324;2023-02-28T15:00:34;52850.13;;;-144.47;37.82
64076;BME280;50327;51.328;12.324;2023-02-28T15:03:11;52870.00;;;-144.47;37.98
64076;BME280;50327;51.328;12.324;2023-02-28T15:05:42;52881.91;;;-144.47;39.33
64076;BME280;50327;51.328;12.324;2023-02-28T15:08:13;52895.81;;;-144.47;39.30